sensor_id;sensor_type;location;lat;lon;timestamp;P1;durP1;ratioP1;P2;durP2;ratioP2
846;SDS011;410;48.954;9.474;2022-08-27T00:02:01;15.37;;;13.77;;
846;SDS011;410;48.954;9.474;2022-08-27T00:04:04;17.00;;;14.10;;
846;SDS011;410;48.954;9.474;2022-08-27T00:06:10;16.93;;;14.20;;
846;SDS011;410;48.954;9.474;2022-08-27T00:08:14;22.83;;;14.80;;
846;SDS011;410;48.954;9.474;2022-08-27T00:10:18;19.50;;;15.60;;
846;SDS011;410;48.954;9.474;2022-08-27T00:12:22;22.77;;;17.33;;
846;SDS011;410;48.954;9.474;2022-08-27T00:14:26;19.40;;;17.30;;
846;SDS011;410;48.954;9.474;2022-08-27T00:16:30;18.40;;;16.10;;
846;SDS011;410;48.954;9.474;2022-08-27T00:18:33;19.57;;;17.03;;
846;SDS011;410;48.954;9.474;2022-08-27T00:20:37;19.43;;;16.20;;
846;SDS011;410;48.954;9.474;2022-08-27T00:22:41;20.80;;;16.77;;
846;SDS011;410;48.954;9.474;2022-08-27T00:24:44;18.77;;;16.20;;
846;SDS011;410;48.954;9.474;2022-08-27T00:26:49;20.40;;;18.20;;
846;SDS011;410;48.954;9.474;2022-08-27T00:28:54;18.90;;;16.23;;
846;SDS011;410;48.954;9.474;2022-08-27T00:30:57;21.73;;;19.03;;
846;SDS011;410;48.954;9.474;2022-08-27T00:33:02;23.30;;;19.77;;
846;SDS011;410;48.954;9.474;2022-08-27T00:35:05;25.20;;;19.83;;
846;SDS011;410;48.954;9.474;2022-08-27T00:37:10;22.13;;;19.00;;
846;SDS011;410;48.954;9.474;2022-08-27T00:39:14;20.20;;;16.70;;
846;SDS011;410;48.954;9.474;2022-08-27T00:41:18;17.03;;;15.17;;
846;SDS011;410;48.954;9.474;2022-08-27T00:43:21;18.90;;;15.43;;
846;SDS011;410;48.954;9.474;2022-08-27T00:45:25;20.90;;;16.93;;
846;SDS011;410;48.954;9.474;2022-08-27T00:47:29;23.47;;;17.23;;
846;SDS011;410;48.954;9.474;2022-08-27T00:49:36;17.90;;;16.00;;
846;SDS011;410;48.954;9.474;2022-08-27T00:51:42;19.93;;;17.77;;
846;SDS011;410;48.954;9.474;2022-08-27T00:53:50;22.60;;;17.03;;
846;SDS011;410;48.954;9.474;2022-08-27T00:55:55;24.80;;;18.80;;
846;SDS011;410;48.954;9.474;2022-08-27T00:58:01;21.43;;;18.20;;
846;SDS011;410;48.954;9.474;2022-08-27T01:00:10;24.10;;;20.60;;
846;SDS011;410;48.954;9.474;2022-08-27T01:02:15;26.83;;;20.93;;
846;SDS011;410;48.954;9.474;2022-08-27T01:04:21;25.10;;;21.80;;
846;SDS011;410;48.954;9.474;2022-08-27T01:06:25;25.13;;;19.70;;
846;SDS011;410;48.954;9.474;2022-08-27T01:08:38;24.70;;;19.53;;
846;SDS011;410;48.954;9.474;2022-08-27T01:10:44;23.43;;;20.47;;
846;SDS011;410;48.954;9.474;2022-08-27T01:12:49;24.83;;;20.57;;
846;SDS011;410;48.954;9.474;2022-08-27T01:14:54;25.33;;;19.27;;
846;SDS011;410;48.954;9.474;2022-08-27T01:16:57;24.53;;;20.70;;
846;SDS011;410;48.954;9.474;2022-08-27T01:19:02;23.90;;;21.30;;
846;SDS011;410;48.954;9.474;2022-08-27T01:21:07;23.63;;;20.43;;
846;SDS011;410;48.954;9.474;2022-08-27T01:23:13;23.70;;;20.10;;
846;SDS011;410;48.954;9.474;2022-08-27T01:25:22;21.70;;;18.63;;
846;SDS011;410;48.954;9.474;2022-08-27T01:27:27;24.83;;;19.10;;
846;SDS011;410;48.954;9.474;2022-08-27T01:29:32;22.40;;;18.23;;
846;SDS011;410;48.954;9.474;2022-08-27T01:31:35;22.77;;;19.73;;
846;SDS011;410;48.954;9.474;2022-08-27T01:33:39;26.20;;;20.60;;
846;SDS011;410;48.954;9.474;2022-08-27T01:35:44;24.23;;;20.70;;
846;SDS011;410;48.954;9.474;2022-08-27T01:37:49;25.63;;;21.73;;
846;SDS011;410;48.954;9.474;2022-08-27T01:39:57;30.60;;;23.87;;
846;SDS011;410;48.954;9.474;2022-08-27T01:42:02;29.07;;;24.30;;
846;SDS011;410;48.954;9.474;2022-08-27T01:44:06;28.27;;;24.03;;
846;SDS011;410;48.954;9.474;2022-08-27T01:46:09;27.87;;;22.87;;
846;SDS011;410;48.954;9.474;2022-08-27T01:48:12;29.17;;;24.37;;
846;SDS011;410;48.954;9.474;2022-08-27T01:50:17;28.30;;;24.17;;
846;SDS011;410;48.954;9.474;2022-08-27T01:52:22;27.17;;;22.70;;
846;SDS011;410;48.954;9.474;2022-08-27T01:54:26;30.53;;;26.30;;
846;SDS011;410;48.954;9.474;2022-08-27T01:56:30;33.43;;;26.97;;
846;SDS011;410;48.954;9.474;2022-08-27T01:58:34;32.80;;;26.30;;
846;SDS011;410;48.954;9.474;2022-08-27T02:00:38;35.97;;;26.00;;
846;SDS011;410;48.954;9.474;2022-08-27T02:02:43;30.10;;;24.50;;
846;SDS011;410;48.954;9.474;2022-08-27T02:04:46;32.23;;;26.03;;
846;SDS011;410;48.954;9.474;2022-08-27T02:06:50;31.40;;;26.53;;
846;SDS011;410;48.954;9.474;2022-08-27T02:08:53;33.30;;;28.03;;
846;SDS011;410;48.954;9.474;2022-08-27T02:10:56;38.63;;;28.57;;
846;SDS011;410;48.954;9.474;2022-08-27T02:13:00;36.47;;;29.77;;
846;SDS011;410;48.954;9.474;2022-08-27T02:15:05;36.67;;;28.73;;
846;SDS011;410;48.954;9.474;2022-08-27T02:17:09;36.77;;;28.73;;
846;SDS011;410;48.954;9.474;2022-08-27T02:19:12;38.20;;;29.70;;
846;SDS011;410;48.954;9.474;2022-08-27T02:21:16;37.33;;;28.77;;
846;SDS011;410;48.954;9.474;2022-08-27T02:23:20;40.70;;;29.70;;
846;SDS011;410;48.954;9.474;2022-08-27T02:25:23;34.93;;;28.70;;
846;SDS011;410;48.954;9.474;2022-08-27T02:27:31;38.33;;;29.57;;
846;SDS011;410;48.954;9.474;2022-08-27T02:29:34;32.83;;;28.83;;
846;SDS011;410;48.954;9.474;2022-08-27T02:31:38;35.83;;;27.73;;
846;SDS011;410;48.954;9.474;2022-08-27T02:33:42;37.33;;;28.97;;
846;SDS011;410;48.954;9.474;2022-08-27T02:35:45;35.43;;;28.70;;
846;SDS011;410;48.954;9.474;2022-08-27T02:37:48;35.50;;;30.03;;
846;SDS011;410;48.954;9.474;2022-08-27T02:39:52;35.77;;;30.20;;
846;SDS011;410;48.954;9.474;2022-08-27T02:41:55;35.10;;;28.37;;
846;SDS011;410;48.954;9.474;2022-08-27T02:43:58;39.13;;;30.53;;
846;SDS011;410;48.954;9.474;2022-08-27T02:46:02;38.93;;;29.63;;
846;SDS011;410;48.954;9.474;2022-08-27T02:48:07;35.73;;;29.70;;
846;SDS011;410;48.954;9.474;2022-08-27T02:50:11;37.67;;;31.07;;
846;SDS011;410;48.954;9.474;2022-08-27T02:52:15;37.20;;;31.40;;
846;SDS011;410;48.954;9.474;2022-08-27T02:54:25;36.07;;;30.60;;
846;SDS011;410;48.954;9.474;2022-08-27T02:56:29;39.43;;;31.07;;
846;SDS011;410;48.954;9.474;2022-08-27T02:58:32;41.60;;;32.57;;
846;SDS011;410;48.954;9.474;2022-08-27T03:00:35;44.07;;;34.00;;
846;SDS011;410;48.954;9.474;2022-08-27T03:02:38;44.70;;;31.90;;
846;SDS011;410;48.954;9.474;2022-08-27T03:04:43;37.43;;;32.57;;
846;SDS011;410;48.954;9.474;2022-08-27T03:06:46;41.17;;;32.10;;
846;SDS011;410;48.954;9.474;2022-08-27T03:08:50;38.70;;;31.53;;
846;SDS011;410;48.954;9.474;2022-08-27T03:10:54;44.30;;;33.80;;
846;SDS011;410;48.954;9.474;2022-08-27T03:12:58;41.27;;;32.40;;
846;SDS011;410;48.954;9.474;2022-08-27T03:15:01;40.33;;;33.17;;
846;SDS011;410;48.954;9.474;2022-08-27T03:17:04;43.17;;;33.57;;
846;SDS011;410;48.954;9.474;2022-08-27T03:19:21;41.37;;;34.17;;
846;SDS011;410;48.954;9.474;2022-08-27T03:21:26;41.17;;;33.37;;
846;SDS011;410;48.954;9.474;2022-08-27T03:23:30;44.30;;;33.07;;
846;SDS011;410;48.954;9.474;2022-08-27T03:25:34;44.03;;;34.17;;
846;SDS011;410;48.954;9.474;2022-08-27T03:27:37;44.30;;;34.47;;
846;SDS011;410;48.954;9.474;2022-08-27T03:29:40;48.63;;;37.53;;
846;SDS011;410;48.954;9.474;2022-08-27T03:31:43;42.87;;;36.70;;
846;SDS011;410;48.954;9.474;2022-08-27T03:33:46;44.60;;;36.13;;
846;SDS011;410;48.954;9.474;2022-08-27T03:35:49;48.87;;;36.20;;
846;SDS011;410;48.954;9.474;2022-08-27T03:37:54;48.10;;;35.47;;
846;SDS011;410;48.954;9.474;2022-08-27T03:39:57;43.53;;;35.20;;
846;SDS011;410;48.954;9.474;2022-08-27T03:42:00;41.70;;;35.10;;
846;SDS011;410;48.954;9.474;2022-08-27T03:44:03;44.80;;;35.37;;
846;SDS011;410;48.954;9.474;2022-08-27T03:46:06;43.77;;;35.23;;
846;SDS011;410;48.954;9.474;2022-08-27T03:48:10;49.37;;;36.60;;
846;SDS011;410;48.954;9.474;2022-08-27T03:50:13;46.60;;;36.20;;
846;SDS011;410;48.954;9.474;2022-08-27T03:52:16;45.27;;;35.23;;
846;SDS011;410;48.954;9.474;2022-08-27T03:54:21;46.13;;;35.87;;
846;SDS011;410;48.954;9.474;2022-08-27T03:56:25;47.10;;;36.80;;
846;SDS011;410;48.954;9.474;2022-08-27T03:58:28;47.57;;;36.00;;
846;SDS011;410;48.954;9.474;2022-08-27T04:00:31;46.33;;;36.37;;
846;SDS011;410;48.954;9.474;2022-08-27T04:02:34;45.97;;;35.90;;
846;SDS011;410;48.954;9.474;2022-08-27T04:04:38;42.90;;;35.57;;
846;SDS011;410;48.954;9.474;2022-08-27T04:06:41;48.27;;;37.80;;
846;SDS011;410;48.954;9.474;2022-08-27T04:08:44;43.37;;;35.27;;
846;SDS011;410;48.954;9.474;2022-08-27T04:10:49;46.00;;;36.53;;
846;SDS011;410;48.954;9.474;2022-08-27T04:12:52;44.20;;;36.43;;
846;SDS011;410;48.954;9.474;2022-08-27T04:14:55;44.57;;;36.13;;
846;SDS011;410;48.954;9.474;2022-08-27T04:16:58;44.47;;;36.33;;
846;SDS011;410;48.954;9.474;2022-08-27T04:19:02;44.40;;;36.77;;
846;SDS011;410;48.954;9.474;2022-08-27T04:21:06;48.73;;;36.67;;
846;SDS011;410;48.954;9.474;2022-08-27T04:23:09;44.30;;;35.00;;
846;SDS011;410;48.954;9.474;2022-08-27T04:25:13;45.47;;;36.13;;
846;SDS011;410;48.954;9.474;2022-08-27T04:27:17;44.37;;;38.50;;
846;SDS011;410;48.954;9.474;2022-08-27T04:29:21;48.17;;;35.50;;
846;SDS011;410;48.954;9.474;2022-08-27T04:31:24;43.60;;;35.73;;
846;SDS011;410;48.954;9.474;2022-08-27T04:33:27;43.90;;;35.87;;
846;SDS011;410;48.954;9.474;2022-08-27T04:35:32;46.60;;;37.23;;
846;SDS011;410;48.954;9.474;2022-08-27T04:37:35;47.13;;;36.27;;
846;SDS011;410;48.954;9.474;2022-08-27T04:39:38;41.53;;;35.20;;
846;SDS011;410;48.954;9.474;2022-08-27T04:41:41;45.70;;;36.77;;
846;SDS011;410;48.954;9.474;2022-08-27T04:43:45;42.73;;;35.90;;
846;SDS011;410;48.954;9.474;2022-08-27T04:45:49;44.43;;;36.40;;
846;SDS011;410;48.954;9.474;2022-08-27T04:47:52;46.63;;;35.97;;
846;SDS011;410;48.954;9.474;2022-08-27T04:49:55;41.80;;;33.37;;
846;SDS011;410;48.954;9.474;2022-08-27T04:51:58;42.30;;;34.27;;
846;SDS011;410;48.954;9.474;2022-08-27T04:54:02;44.77;;;34.67;;
846;SDS011;410;48.954;9.474;2022-08-27T04:56:05;44.07;;;34.53;;
846;SDS011;410;48.954;9.474;2022-08-27T04:58:14;42.20;;;35.73;;
846;SDS011;410;48.954;9.474;2022-08-27T05:00:19;42.23;;;34.87;;
846;SDS011;410;48.954;9.474;2022-08-27T05:02:23;45.60;;;35.07;;
846;SDS011;410;48.954;9.474;2022-08-27T05:04:26;41.73;;;34.40;;
846;SDS011;410;48.954;9.474;2022-08-27T05:06:30;48.03;;;35.40;;
846;SDS011;410;48.954;9.474;2022-08-27T05:08:34;44.90;;;36.00;;
846;SDS011;410;48.954;9.474;2022-08-27T05:10:38;46.00;;;33.60;;
846;SDS011;410;48.954;9.474;2022-08-27T05:12:42;44.67;;;35.27;;
846;SDS011;410;48.954;9.474;2022-08-27T05:14:45;40.90;;;33.70;;
846;SDS011;410;48.954;9.474;2022-08-27T05:16:49;46.30;;;35.17;;
846;SDS011;410;48.954;9.474;2022-08-27T05:18:53;44.13;;;34.53;;
846;SDS011;410;48.954;9.474;2022-08-27T05:20:56;39.07;;;33.50;;
846;SDS011;410;48.954;9.474;2022-08-27T05:23:00;44.70;;;33.80;;
846;SDS011;410;48.954;9.474;2022-08-27T05:25:03;43.43;;;34.80;;
846;SDS011;410;48.954;9.474;2022-08-27T05:27:07;43.00;;;33.80;;
846;SDS011;410;48.954;9.474;2022-08-27T05:29:13;45.93;;;36.70;;
846;SDS011;410;48.954;9.474;2022-08-27T05:31:17;45.70;;;34.37;;
846;SDS011;410;48.954;9.474;2022-08-27T05:33:23;48.40;;;34.83;;
846;SDS011;410;48.954;9.474;2022-08-27T05:35:27;43.80;;;34.37;;
846;SDS011;410;48.954;9.474;2022-08-27T05:37:30;41.53;;;34.20;;
846;SDS011;410;48.954;9.474;2022-08-27T05:39:34;42.33;;;33.90;;
846;SDS011;410;48.954;9.474;2022-08-27T05:41:37;41.20;;;32.70;;
846;SDS011;410;48.954;9.474;2022-08-27T05:43:40;41.83;;;34.23;;
846;SDS011;410;48.954;9.474;2022-08-27T05:45:50;47.63;;;36.60;;
846;SDS011;410;48.954;9.474;2022-08-27T05:47:54;43.20;;;34.47;;
846;SDS011;410;48.954;9.474;2022-08-27T05:49:59;48.90;;;37.50;;
846;SDS011;410;48.954;9.474;2022-08-27T05:52:07;44.83;;;34.00;;
846;SDS011;410;48.954;9.474;2022-08-27T05:54:11;42.63;;;33.90;;
846;SDS011;410;48.954;9.474;2022-08-27T05:56:20;40.20;;;34.10;;
846;SDS011;410;48.954;9.474;2022-08-27T05:58:24;43.00;;;34.60;;
846;SDS011;410;48.954;9.474;2022-08-27T06:00:45;41.40;;;33.97;;
846;SDS011;410;48.954;9.474;2022-08-27T06:03:10;41.70;;;33.30;;
846;SDS011;410;48.954;9.474;2022-08-27T06:05:15;46.67;;;34.93;;
846;SDS011;410;48.954;9.474;2022-08-27T06:07:18;45.10;;;35.60;;
846;SDS011;410;48.954;9.474;2022-08-27T06:09:23;49.83;;;36.57;;
846;SDS011;410;48.954;9.474;2022-08-27T06:11:29;44.53;;;35.37;;
846;SDS011;410;48.954;9.474;2022-08-27T06:13:33;46.40;;;36.43;;
846;SDS011;410;48.954;9.474;2022-08-27T06:15:38;44.67;;;36.90;;
846;SDS011;410;48.954;9.474;2022-08-27T06:17:42;47.30;;;35.73;;
846;SDS011;410;48.954;9.474;2022-08-27T06:19:45;49.33;;;35.17;;
846;SDS011;410;48.954;9.474;2022-08-27T06:21:49;47.60;;;37.30;;
846;SDS011;410;48.954;9.474;2022-08-27T06:24:10;47.37;;;36.03;;
846;SDS011;410;48.954;9.474;2022-08-27T06:26:15;50.83;;;35.17;;
846;SDS011;410;48.954;9.474;2022-08-27T06:28:19;45.23;;;35.10;;
846;SDS011;410;48.954;9.474;2022-08-27T06:30:23;44.03;;;35.70;;
846;SDS011;410;48.954;9.474;2022-08-27T06:32:28;39.53;;;32.93;;
846;SDS011;410;48.954;9.474;2022-08-27T06:34:32;47.13;;;35.10;;
846;SDS011;410;48.954;9.474;2022-08-27T06:36:35;49.10;;;36.70;;
846;SDS011;410;48.954;9.474;2022-08-27T06:38:41;49.03;;;37.83;;
846;SDS011;410;48.954;9.474;2022-08-27T06:40:45;46.13;;;38.53;;
846;SDS011;410;48.954;9.474;2022-08-27T06:42:48;51.77;;;39.10;;
846;SDS011;410;48.954;9.474;2022-08-27T06:44:51;44.00;;;37.00;;
846;SDS011;410;48.954;9.474;2022-08-27T06:46:55;48.27;;;37.47;;
846;SDS011;410;48.954;9.474;2022-08-27T06:48:59;48.73;;;38.07;;
846;SDS011;410;48.954;9.474;2022-08-27T06:51:05;51.53;;;38.30;;
846;SDS011;410;48.954;9.474;2022-08-27T06:53:09;47.67;;;38.00;;
846;SDS011;410;48.954;9.474;2022-08-27T06:55:14;48.27;;;38.30;;
846;SDS011;410;48.954;9.474;2022-08-27T06:57:17;45.73;;;36.63;;
846;SDS011;410;48.954;9.474;2022-08-27T06:59:20;46.53;;;38.03;;
846;SDS011;410;48.954;9.474;2022-08-27T07:01:24;50.03;;;38.20;;
846;SDS011;410;48.954;9.474;2022-08-27T07:03:31;49.43;;;38.60;;
846;SDS011;410;48.954;9.474;2022-08-27T07:05:34;48.30;;;37.60;;
846;SDS011;410;48.954;9.474;2022-08-27T07:07:38;48.57;;;38.40;;
846;SDS011;410;48.954;9.474;2022-08-27T07:09:49;44.77;;;37.47;;
846;SDS011;410;48.954;9.474;2022-08-27T07:11:53;50.03;;;38.70;;
846;SDS011;410;48.954;9.474;2022-08-27T07:13:58;54.73;;;40.53;;
846;SDS011;410;48.954;9.474;2022-08-27T07:16:03;47.10;;;39.10;;
846;SDS011;410;48.954;9.474;2022-08-27T07:18:06;45.97;;;37.10;;
846;SDS011;410;48.954;9.474;2022-08-27T07:20:12;50.53;;;37.43;;
846;SDS011;410;48.954;9.474;2022-08-27T07:22:16;46.63;;;38.50;;
846;SDS011;410;48.954;9.474;2022-08-27T07:24:19;47.90;;;37.60;;
846;SDS011;410;48.954;9.474;2022-08-27T07:26:22;50.60;;;37.33;;
846;SDS011;410;48.954;9.474;2022-08-27T07:28:26;47.90;;;37.90;;
846;SDS011;410;48.954;9.474;2022-08-27T07:30:30;49.70;;;38.07;;
846;SDS011;410;48.954;9.474;2022-08-27T07:32:33;50.53;;;39.60;;
846;SDS011;410;48.954;9.474;2022-08-27T07:34:36;48.80;;;37.60;;
846;SDS011;410;48.954;9.474;2022-08-27T07:36:39;48.37;;;38.87;;
846;SDS011;410;48.954;9.474;2022-08-27T07:38:42;50.43;;;38.60;;
846;SDS011;410;48.954;9.474;2022-08-27T07:40:55;48.27;;;37.90;;
846;SDS011;410;48.954;9.474;2022-08-27T07:42:59;45.87;;;38.13;;
846;SDS011;410;48.954;9.474;2022-08-27T07:45:21;50.70;;;38.57;;
846;SDS011;410;48.954;9.474;2022-08-27T07:47:24;53.63;;;39.17;;
846;SDS011;410;48.954;9.474;2022-08-27T07:49:27;49.87;;;38.00;;
846;SDS011;410;48.954;9.474;2022-08-27T07:51:31;48.33;;;38.43;;
846;SDS011;410;48.954;9.474;2022-08-27T07:53:37;52.93;;;40.20;;
846;SDS011;410;48.954;9.474;2022-08-27T07:55:40;51.37;;;39.20;;
846;SDS011;410;48.954;9.474;2022-08-27T07:57:44;55.20;;;38.50;;
846;SDS011;410;48.954;9.474;2022-08-27T07:59:48;52.53;;;40.03;;
846;SDS011;410;48.954;9.474;2022-08-27T08:01:55;52.30;;;40.70;;
846;SDS011;410;48.954;9.474;2022-08-27T08:03:58;50.67;;;39.93;;
846;SDS011;410;48.954;9.474;2022-08-27T08:06:02;48.63;;;38.97;;
846;SDS011;410;48.954;9.474;2022-08-27T08:08:06;49.87;;;39.00;;
846;SDS011;410;48.954;9.474;2022-08-27T08:10:09;54.13;;;40.30;;
846;SDS011;410;48.954;9.474;2022-08-27T08:12:13;50.03;;;39.63;;
846;SDS011;410;48.954;9.474;2022-08-27T08:14:18;52.40;;;39.80;;
846;SDS011;410;48.954;9.474;2022-08-27T08:16:23;48.37;;;39.47;;
846;SDS011;410;48.954;9.474;2022-08-27T08:18:33;51.47;;;38.03;;
846;SDS011;410;48.954;9.474;2022-08-27T08:20:38;49.57;;;38.97;;
846;SDS011;410;48.954;9.474;2022-08-27T08:22:58;45.83;;;37.73;;
846;SDS011;410;48.954;9.474;2022-08-27T08:25:02;53.00;;;37.47;;
846;SDS011;410;48.954;9.474;2022-08-27T08:27:06;48.93;;;38.07;;
846;SDS011;410;48.954;9.474;2022-08-27T08:29:09;47.33;;;36.70;;
846;SDS011;410;48.954;9.474;2022-08-27T08:31:19;47.10;;;38.50;;
846;SDS011;410;48.954;9.474;2022-08-27T08:33:24;43.97;;;36.77;;
846;SDS011;410;48.954;9.474;2022-08-27T08:35:29;52.70;;;37.77;;
846;SDS011;410;48.954;9.474;2022-08-27T08:37:41;48.23;;;37.03;;
846;SDS011;410;48.954;9.474;2022-08-27T08:39:44;50.00;;;38.13;;
846;SDS011;410;48.954;9.474;2022-08-27T08:41:48;48.23;;;36.67;;
846;SDS011;410;48.954;9.474;2022-08-27T08:43:53;46.33;;;37.23;;
846;SDS011;410;48.954;9.474;2022-08-27T08:45:59;48.47;;;35.93;;
846;SDS011;410;48.954;9.474;2022-08-27T08:48:07;44.03;;;36.03;;
846;SDS011;410;48.954;9.474;2022-08-27T08:50:15;43.47;;;35.30;;
846;SDS011;410;48.954;9.474;2022-08-27T08:52:24;39.80;;;32.40;;
846;SDS011;410;48.954;9.474;2022-08-27T08:54:33;38.27;;;32.17;;
846;SDS011;410;48.954;9.474;2022-08-27T08:56:39;36.87;;;30.23;;
846;SDS011;410;48.954;9.474;2022-08-27T08:58:46;32.23;;;28.07;;
846;SDS011;410;48.954;9.474;2022-08-27T09:00:53;35.17;;;29.23;;
846;SDS011;410;48.954;9.474;2022-08-27T09:02:58;31.10;;;27.80;;
846;SDS011;410;48.954;9.474;2022-08-27T09:05:02;34.90;;;28.90;;
846;SDS011;410;48.954;9.474;2022-08-27T09:07:08;32.73;;;27.40;;
846;SDS011;410;48.954;9.474;2022-08-27T09:09:18;29.87;;;25.63;;
846;SDS011;410;48.954;9.474;2022-08-27T09:11:25;32.23;;;26.50;;
846;SDS011;410;48.954;9.474;2022-08-27T09:13:32;28.30;;;24.23;;
846;SDS011;410;48.954;9.474;2022-08-27T09:15:38;29.43;;;26.23;;
846;SDS011;410;48.954;9.474;2022-08-27T09:17:41;31.97;;;27.77;;
846;SDS011;410;48.954;9.474;2022-08-27T09:19:45;33.00;;;26.50;;
846;SDS011;410;48.954;9.474;2022-08-27T09:21:54;27.87;;;24.37;;
846;SDS011;410;48.954;9.474;2022-08-27T09:24:02;28.57;;;25.27;;
846;SDS011;410;48.954;9.474;2022-08-27T09:26:17;27.50;;;24.67;;
846;SDS011;410;48.954;9.474;2022-08-27T09:28:25;30.30;;;24.73;;
846;SDS011;410;48.954;9.474;2022-08-27T09:30:47;26.50;;;23.57;;
846;SDS011;410;48.954;9.474;2022-08-27T09:32:51;25.40;;;22.70;;
846;SDS011;410;48.954;9.474;2022-08-27T09:34:57;28.40;;;24.20;;
846;SDS011;410;48.954;9.474;2022-08-27T09:37:03;29.17;;;26.17;;
846;SDS011;410;48.954;9.474;2022-08-27T09:39:08;26.00;;;22.77;;
846;SDS011;410;48.954;9.474;2022-08-27T09:41:15;25.90;;;23.17;;
846;SDS011;410;48.954;9.474;2022-08-27T09:43:22;26.60;;;23.37;;
846;SDS011;410;48.954;9.474;2022-08-27T09:45:28;26.30;;;23.50;;
846;SDS011;410;48.954;9.474;2022-08-27T09:47:39;27.87;;;24.30;;
846;SDS011;410;48.954;9.474;2022-08-27T09:49:43;25.73;;;22.40;;
846;SDS011;410;48.954;9.474;2022-08-27T09:51:47;25.90;;;22.67;;
846;SDS011;410;48.954;9.474;2022-08-27T09:53:52;24.27;;;21.77;;
846;SDS011;410;48.954;9.474;2022-08-27T09:55:56;25.93;;;22.93;;
846;SDS011;410;48.954;9.474;2022-08-27T09:58:03;24.20;;;21.57;;
846;SDS011;410;48.954;9.474;2022-08-27T10:00:07;23.83;;;21.33;;
846;SDS011;410;48.954;9.474;2022-08-27T10:02:17;26.00;;;22.17;;
846;SDS011;410;48.954;9.474;2022-08-27T10:04:23;24.20;;;21.73;;
846;SDS011;410;48.954;9.474;2022-08-27T10:06:29;25.07;;;22.30;;
846;SDS011;410;48.954;9.474;2022-08-27T10:08:34;24.40;;;21.50;;
846;SDS011;410;48.954;9.474;2022-08-27T10:10:42;24.63;;;21.90;;
846;SDS011;410;48.954;9.474;2022-08-27T10:12:52;24.67;;;19.90;;
846;SDS011;410;48.954;9.474;2022-08-27T10:14:59;22.63;;;20.30;;
846;SDS011;410;48.954;9.474;2022-08-27T10:17:06;22.57;;;20.10;;
846;SDS011;410;48.954;9.474;2022-08-27T10:19:15;22.47;;;20.20;;
846;SDS011;410;48.954;9.474;2022-08-27T10:21:34;23.37;;;20.40;;
846;SDS011;410;48.954;9.474;2022-08-27T10:23:44;23.03;;;20.83;;
846;SDS011;410;48.954;9.474;2022-08-27T10:25:55;23.60;;;21.20;;
846;SDS011;410;48.954;9.474;2022-08-27T10:28:07;22.87;;;20.50;;
846;SDS011;410;48.954;9.474;2022-08-27T10:30:24;22.17;;;19.90;;
846;SDS011;410;48.954;9.474;2022-08-27T10:35:02;22.10;;;19.00;;
846;SDS011;410;48.954;9.474;2022-08-27T10:37:13;20.90;;;18.17;;
846;SDS011;410;48.954;9.474;2022-08-27T10:39:27;20.70;;;18.50;;
846;SDS011;410;48.954;9.474;2022-08-27T10:41:40;20.30;;;18.17;;
846;SDS011;410;48.954;9.474;2022-08-27T10:43:56;19.70;;;17.80;;
846;SDS011;410;48.954;9.474;2022-08-27T10:46:19;20.97;;;17.80;;
846;SDS011;410;48.954;9.474;2022-08-27T10:48:33;20.73;;;18.60;;
846;SDS011;410;48.954;9.474;2022-08-27T10:50:41;20.63;;;18.40;;
846;SDS011;410;48.954;9.474;2022-08-27T10:52:49;20.57;;;18.67;;
846;SDS011;410;48.954;9.474;2022-08-27T10:54:55;21.43;;;19.13;;
846;SDS011;410;48.954;9.474;2022-08-27T10:57:07;21.17;;;19.00;;
846;SDS011;410;48.954;9.474;2022-08-27T10:59:36;20.20;;;18.20;;
846;SDS011;410;48.954;9.474;2022-08-27T11:01:47;21.30;;;19.13;;
846;SDS011;410;48.954;9.474;2022-08-27T11:03:54;22.20;;;19.90;;
846;SDS011;410;48.954;9.474;2022-08-27T11:06:02;18.47;;;16.57;;
846;SDS011;410;48.954;9.474;2022-08-27T11:08:08;20.33;;;18.10;;
846;SDS011;410;48.954;9.474;2022-08-27T11:10:15;19.60;;;17.80;;
846;SDS011;410;48.954;9.474;2022-08-27T11:12:30;21.23;;;19.03;;
846;SDS011;410;48.954;9.474;2022-08-27T11:14:36;20.87;;;18.07;;
846;SDS011;410;48.954;9.474;2022-08-27T11:16:45;24.03;;;19.73;;
846;SDS011;410;48.954;9.474;2022-08-27T11:18:53;19.53;;;17.50;;
846;SDS011;410;48.954;9.474;2022-08-27T11:21:00;21.03;;;18.80;;
846;SDS011;410;48.954;9.474;2022-08-27T11:23:05;21.17;;;18.97;;
846;SDS011;410;48.954;9.474;2022-08-27T11:25:14;19.97;;;18.07;;
846;SDS011;410;48.954;9.474;2022-08-27T11:27:28;19.77;;;17.73;;
846;SDS011;410;48.954;9.474;2022-08-27T11:29:33;20.07;;;18.13;;
846;SDS011;410;48.954;9.474;2022-08-27T11:31:39;20.63;;;18.50;;
846;SDS011;410;48.954;9.474;2022-08-27T11:33:47;19.90;;;17.70;;
846;SDS011;410;48.954;9.474;2022-08-27T11:38:42;21.00;;;19.00;;
846;SDS011;410;48.954;9.474;2022-08-27T11:40:51;20.93;;;18.97;;
846;SDS011;410;48.954;9.474;2022-08-27T11:43:01;21.57;;;19.10;;
846;SDS011;410;48.954;9.474;2022-08-27T11:45:08;21.40;;;19.30;;
846;SDS011;410;48.954;9.474;2022-08-27T11:47:19;21.53;;;19.33;;
846;SDS011;410;48.954;9.474;2022-08-27T11:49:25;21.53;;;19.20;;
846;SDS011;410;48.954;9.474;2022-08-27T11:51:30;23.23;;;19.63;;
846;SDS011;410;48.954;9.474;2022-08-27T11:53:36;21.70;;;19.50;;
846;SDS011;410;48.954;9.474;2022-08-27T11:55:53;22.60;;;20.33;;
846;SDS011;410;48.954;9.474;2022-08-27T12:00:35;24.13;;;20.23;;
846;SDS011;410;48.954;9.474;2022-08-27T12:02:39;24.07;;;21.47;;
846;SDS011;410;48.954;9.474;2022-08-27T12:04:43;23.77;;;21.27;;
846;SDS011;410;48.954;9.474;2022-08-27T12:06:50;27.23;;;21.70;;
846;SDS011;410;48.954;9.474;2022-08-27T12:09:04;25.27;;;21.40;;
846;SDS011;410;48.954;9.474;2022-08-27T12:11:11;24.67;;;22.13;;
846;SDS011;410;48.954;9.474;2022-08-27T12:13:21;25.17;;;22.40;;
846;SDS011;410;48.954;9.474;2022-08-27T12:15:43;23.80;;;21.30;;
846;SDS011;410;48.954;9.474;2022-08-27T12:17:53;29.47;;;22.83;;
846;SDS011;410;48.954;9.474;2022-08-27T12:20:05;25.63;;;21.30;;
846;SDS011;410;48.954;9.474;2022-08-27T12:22:20;23.67;;;21.33;;
846;SDS011;410;48.954;9.474;2022-08-27T12:24:38;26.80;;;21.00;;
846;SDS011;410;48.954;9.474;2022-08-27T12:26:52;23.17;;;20.67;;
846;SDS011;410;48.954;9.474;2022-08-27T12:29:17;21.77;;;19.53;;
846;SDS011;410;48.954;9.474;2022-08-27T12:31:24;24.27;;;21.00;;
846;SDS011;410;48.954;9.474;2022-08-27T12:33:30;22.20;;;20.07;;
846;SDS011;410;48.954;9.474;2022-08-27T12:35:39;23.67;;;21.17;;
846;SDS011;410;48.954;9.474;2022-08-27T12:37:47;24.80;;;21.50;;
846;SDS011;410;48.954;9.474;2022-08-27T12:39:57;23.90;;;20.70;;
846;SDS011;410;48.954;9.474;2022-08-27T12:42:02;22.00;;;19.70;;
846;SDS011;410;48.954;9.474;2022-08-27T12:44:14;25.50;;;20.80;;
846;SDS011;410;48.954;9.474;2022-08-27T12:46:24;24.83;;;22.23;;
846;SDS011;410;48.954;9.474;2022-08-27T12:48:37;23.13;;;20.70;;
846;SDS011;410;48.954;9.474;2022-08-27T12:50:48;26.43;;;21.03;;
846;SDS011;410;48.954;9.474;2022-08-27T12:53:15;22.50;;;20.20;;
846;SDS011;410;48.954;9.474;2022-08-27T12:55:29;24.40;;;22.00;;
846;SDS011;410;48.954;9.474;2022-08-27T12:57:38;22.07;;;19.77;;
846;SDS011;410;48.954;9.474;2022-08-27T12:59:48;23.83;;;20.50;;
846;SDS011;410;48.954;9.474;2022-08-27T13:02:03;16.30;;;11.73;;
846;SDS011;410;48.954;9.474;2022-08-27T13:04:16;11.03;;;9.90;;
846;SDS011;410;48.954;9.474;2022-08-27T13:06:27;8.07;;;6.93;;
846;SDS011;410;48.954;9.474;2022-08-27T13:08:32;9.07;;;8.23;;
846;SDS011;410;48.954;9.474;2022-08-27T13:10:36;12.07;;;10.80;;
846;SDS011;410;48.954;9.474;2022-08-27T13:12:39;14.20;;;11.87;;